Time;durP1;ratioP1;P1;durP2;ratioP2;P2;SDS_P1;SDS_P2;PMS_P1;PMS_P2;Temp;Humidity;BMP_temperature;BMP_pressure;BME280_temperature;BME280_humidity;BME280_pressure;Samples;Min_cycle;Max_cycle;Signal;HPM_P1;HPM_P2
2023/01/06 00:07:05;;;;;;;2.83;1.73;;;;;;;20.96;54.00;100633.47;20834160;28;20294;-76
2023/01/06 00:17:05;;;;;;;2.70;1.90;;;;;;;20.97;54.58;100640.41;20835073;28;20061;-74
2023/01/06 00:27:06;;;;;;;4.97;2.03;;;;;;;20.91;54.54;100657.47;20850841;28;20454;-74
2023/01/06 00:37:06;;;;;;;2.53;1.58;;;;;;;20.90;54.62;100681.28;20853830;28;20084;-75
2023/01/06 00:47:09;;;;;;;1.58;1.48;;;;;;;20.87;54.84;100685.00;20841309;28;20049;-74
2023/01/06 00:57:09;;;;;;;3.23;1.80;;;;;;;20.86;54.69;100696.47;20844541;28;20107;-73
2023/01/06 01:07:10;;;;;;;1.65;1.50;;;;;;;20.81;54.48;100706.44;20840532;28;20071;-72
2023/01/06 01:17:11;;;;;;;1.77;1.30;;;;;;;20.81;54.63;100719.59;20849966;28;20413;-73
2023/01/06 01:27:12;;;;;;;1.92;1.58;;;;;;;20.81;54.82;100721.41;20850941;28;20090;-74
2023/01/06 01:37:13;;;;;;;3.05;1.40;;;;;;;20.79;54.71;100737.31;20846413;28;20507;-72
2023/01/06 01:47:31;;;;;;;1.30;1.20;;;;;;;20.77;54.71;100758.47;20825444;28;20037;-76
2023/01/06 01:57:55;;;;;;;1.85;1.38;;;;;;;20.74;55.01;100778.91;20818370;28;20054;-72
2023/01/06 02:07:59;;;;;;;3.42;1.20;;;;;;;20.72;54.73;100776.38;20832565;28;20071;-73
2023/01/06 02:18:39;;;;;;;1.40;1.20;;;;;;;20.70;54.98;100757.19;20840721;28;20070;-74
2023/01/06 02:28:54;;;;;;;1.17;1.02;;;;;;;20.70;54.90;100756.34;20807130;28;20045;-74
2023/01/06 02:39:09;;;;;;;1.30;1.20;;;;;;;20.70;54.88;100749.31;20823236;28;20056;-75
2023/01/06 02:49:15;;;;;;;1.10;1.00;;;;;;;20.69;54.64;100765.19;20823308;28;20045;-74
2023/01/06 02:59:32;;;;;;;1.38;1.20;;;;;;;20.68;54.54;100766.97;20825419;28;20144;-76
2023/01/06 03:09:36;;;;;;;1.02;0.93;;;;;;;20.67;54.80;100778.44;20825601;28;20581;-74
2023/01/06 03:19:36;;;;;;;1.15;0.90;;;;;;;20.68;54.43;100787.19;20842700;28;20041;-74
2023/01/06 03:29:38;;;;;;;2.05;0.98;;;;;;;20.68;54.67;100797.69;20832298;28;20122;-74
2023/01/06 03:39:49;;;;;;;1.13;1.00;;;;;;;20.68;55.13;100793.28;20837529;28;20051;-74
2023/01/06 03:50:25;;;;;;;1.70;0.95;;;;;;;20.66;55.21;100799.63;20855951;28;20053;-75
2023/01/06 04:00:30;;;;;;;0.80;0.80;;;;;;;20.64;54.80;100813.72;20846356;28;20065;-77
2023/01/06 04:10:32;;;;;;;0.77;0.70;;;;;;;20.61;54.67;100820.97;20845817;28;20049;-74
2023/01/06 04:20:32;;;;;;;1.67;1.05;;;;;;;20.61;54.75;100829.69;20835455;28;20044;-75
2023/01/06 04:30:33;;;;;;;1.00;0.77;;;;;;;20.59;55.48;100831.59;20869275;28;20041;-74
2023/01/06 04:40:33;;;;;;;2.55;0.90;;;;;;;20.58;55.04;100829.06;20865195;28;20405;-73
2023/01/06 04:50:34;;;;;;;1.20;0.80;;;;;;;20.56;55.16;100852.84;20862590;28;20408;-74
2023/01/06 05:00:35;;;;;;;0.60;0.50;;;;;;;20.57;55.22;100875.59;20885685;28;20146;-76
2023/01/06 05:10:35;;;;;;;1.15;0.63;;;;;;;20.55;55.17;100887.16;20882500;28;20452;-75
2023/01/06 05:20:36;;;;;;;0.88;0.57;;;;;;;20.59;55.21;100889.50;20892965;28;20486;-73
2023/01/06 05:30:36;;;;;;;0.88;0.70;;;;;;;20.66;54.78;100875.94;20842349;28;20048;-73
2023/01/06 05:40:37;;;;;;;0.55;0.50;;;;;;;20.74;54.90;100905.25;20874215;28;20135;-75
2023/01/06 05:50:37;;;;;;;1.48;0.68;;;;;;;20.81;55.04;100932.78;20880534;28;20037;-75
2023/01/06 06:00:37;;;;;;;1.98;0.60;;;;;;;20.86;54.54;100936.00;20862317;28;20132;-74
2023/01/06 06:10:38;;;;;;;0.77;0.60;;;;;;;20.91;54.75;100936.50;20872223;28;20040;-74
2023/01/06 06:20:38;;;;;;;0.65;0.40;;;;;;;20.96;54.51;100928.31;20844621;28;20070;-74
2023/01/06 06:30:39;;;;;;;0.68;0.68;;;;;;;21.02;54.52;100942.81;20846029;28;20040;-74
2023/01/06 06:40:43;;;;;;;0.68;0.60;;;;;;;21.09;54.64;100967.78;20869229;28;20040;-75
2023/01/06 06:50:44;;;;;;;0.70;0.45;;;;;;;21.12;54.39;100978.13;20864348;28;20087;-75
2023/01/06 07:00:44;;;;;;;0.43;0.43;;;;;;;21.19;54.30;100989.94;20852578;28;20155;-74
2023/01/06 07:10:45;;;;;;;0.52;0.45;;;;;;;21.23;54.36;100998.47;20851014;28;20144;-76
2023/01/06 07:20:48;;;;;;;0.30;0.30;;;;;;;21.29;54.03;101029.66;20839227;28;20049;-75
2023/01/06 07:30:49;;;;;;;0.40;0.38;;;;;;;21.35;54.35;101037.16;20873109;28;20045;-75
2023/01/06 07:40:50;;;;;;;0.70;0.60;;;;;;;21.40;54.26;101021.03;20869986;28;20028;-74
2023/01/06 07:50:51;;;;;;;24.10;0.90;;;;;;;21.48;54.56;101023.13;20826611;28;20043;-75
2023/01/06 08:00:51;;;;;;;11.73;0.52;;;;;;;21.55;54.98;101034.94;20785610;28;20045;-74
2023/01/06 08:10:51;;;;;;;2.28;0.80;;;;;;;21.59;55.03;101047.84;20836280;28;20127;-72
2023/01/06 08:20:52;;;;;;;3.65;1.00;;;;;;;21.71;55.22;101018.94;20828373;28;20496;-71
2023/01/06 08:30:52;;;;;;;3.00;2.03;;;;;;;;;;20824469;28;20122;-72
2023/01/06 08:40:54;;;;;;;7.60;3.10;;;;;;;21.81;55.86;101003.31;20833763;28;20103;-73
2023/01/06 08:50:56;;;;;;;9.13;5.20;;;;;;;21.84;55.94;100998.69;20818826;28;20045;-75
2023/01/06 09:00:57;;;;;;;8.73;5.67;;;;;;;21.87;56.11;101001.13;20826628;28;20049;-75
2023/01/06 09:11:05;;;;;;;4.45;2.60;;;;;;;21.45;42.82;101026.84;20808943;28;20537;-75
2023/01/06 09:21:05;;;;;;;9.55;1.65;;;;;;;20.47;39.88;101042.91;20822935;28;20048;-83
2023/01/06 09:31:07;;;;;;;5.47;1.85;;;;;;;20.91;44.62;101039.19;20839889;28;20060;-77
2023/01/06 09:41:37;;;;;;;3.33;1.30;;;;;;;21.10;46.29;101040.59;20792737;28;20045;-78
2023/01/06 09:51:38;;;;;;;12.20;2.22;;;;;;;21.19;47.72;101034.72;20834363;28;20053;-79
2023/01/06 10:01:45;;;;;;;17.63;5.35;;;;;;;21.28;48.75;101043.78;20804636;28;20053;-77
2023/01/06 10:12:32;;;;;;;11.02;3.67;;;;;;;21.19;45.25;101028.59;20841831;28;20852;-78
2023/01/06 10:22:53;;;;;;;10.20;4.30;;;;;;;21.25;47.20;101020.28;20715480;28;20094;-81
2023/01/06 10:32:55;;;;;;;11.75;4.93;;;;;;;21.33;48.60;101015.31;20830009;28;20080;-80
2023/01/06 10:43:07;;;;;;;9.53;5.10;;;;;;;21.43;48.74;101011.13;20826792;28;20049;-78
2023/01/06 10:53:10;;;;;;;8.43;4.70;;;;;;;21.56;49.30;100997.13;20832148;28;20313;-80
2023/01/06 11:03:12;;;;;;;9.07;5.00;;;;;;;21.62;49.40;100996.72;20825162;28;20037;-80
2023/01/06 11:13:33;;;;;;;3.75;2.42;;;;;;;21.44;40.18;101001.44;20834966;28;20569;-78
2023/01/06 11:23:35;;;;;;;4.50;1.70;;;;;;;20.30;33.90;100997.44;20858248;28;20069;-81
2023/01/06 11:33:45;;;;;;;2.60;1.80;;;;;;;20.88;40.81;100991.16;20853842;28;20456;-85
2023/01/06 11:43:46;;;;;;;5.63;1.75;;;;;;;21.15;42.86;100984.97;20846905;28;20033;-78
2023/01/06 11:53:56;;;;;;;3.78;1.80;;;;;;;21.39;44.40;100982.47;20846388;28;20064;-75
2023/01/06 12:04:09;;;;;;;4.20;2.33;;;;;;;21.57;45.07;100975.13;20846691;28;20051;-75
2023/01/06 12:14:16;;;;;;;8.20;2.40;;;;;;;21.70;45.85;100961.91;20832737;28;20423;-75
2023/01/06 12:24:20;;;;;;;4.97;2.47;;;;;;;21.84;46.45;100943.31;20853875;28;20582;-74
2023/01/06 12:34:38;;;;;;;6.20;2.67;;;;;;;21.98;47.30;100934.41;20842182;28;20132;-75
2023/01/06 12:44:49;;;;;;;11.65;3.58;;;;;;;22.13;49.42;100945.66;20813443;28;20136;-77
2023/01/06 12:54:54;;;;;;;14.07;4.57;;;;;;;22.31;52.04;100930.25;20806895;28;20124;-76
2023/01/06 13:05:15;;;;;;;12.13;5.10;;;;;;;22.43;52.93;100928.53;20796526;28;20048;-76
2023/01/06 13:15:26;;;;;;;16.98;4.72;;;;;;;22.48;52.43;100923.75;20816611;28;20444;-76
2023/01/06 13:25:56;;;;;;;10.48;3.70;;;;;;;22.37;50.05;100931.63;20821755;28;20037;-72
2023/01/06 13:36:32;;;;;;;12.50;3.70;;;;;;;22.36;49.90;100943.97;20834295;28;20411;-72
2023/01/06 13:46:33;;;;;;;10.32;3.33;;;;;;;22.34;49.56;100945.03;20813635;28;20045;-71
2023/01/06 13:56:34;;;;;;;5.85;2.95;;;;;;;22.29;49.60;100939.25;20835625;28;20623;-71
2023/01/06 14:06:37;;;;;;;7.43;3.35;;;;;;;22.18;46.60;100926.84;20803779;28;20542;-73
2023/01/06 14:16:45;;;;;;;5.85;2.53;;;;;;;21.83;44.42;100917.06;20818261;28;20103;-78
2023/01/06 14:26:59;;;;;;;6.60;2.20;;;;;;;21.91;45.63;100912.94;20809469;28;20048;-76
2023/01/06 14:37:02;;;;;;;4.03;2.00;;;;;;;21.96;46.87;100924.91;20798371;28;20210;-77
2023/01/06 14:47:10;;;;;;;3.22;1.92;;;;;;;21.96;47.51;100927.56;20818895;28;20070;-74
2023/01/06 14:57:46;;;;;;;3.45;2.30;;;;;;;21.94;48.22;100921.56;20818169;28;20048;-77
2023/01/06 15:08:12;;;;;;;3.92;2.03;;;;;;;21.92;48.87;100932.22;20707085;28;20049;-75
2023/01/06 15:18:13;;;;;;;2.75;2.00;;;;;;;21.88;48.75;100921.03;20837082;28;20045;-76
2023/01/06 15:28:28;;;;;;;3.70;1.92;;;;;;;21.86;49.17;100915.06;20835005;28;20053;-77
2023/01/06 15:38:40;;;;;;;7.70;2.67;;;;;;;21.84;49.49;100911.69;20832545;28;20469;-74
2023/01/06 15:48:46;;;;;;;3.00;2.13;;;;;;;21.82;49.99;100904.84;20827903;28;20070;-75
2023/01/06 15:58:49;;;;;;;4.75;2.15;;;;;;;21.80;49.13;100922.56;20801735;28;20048;-76
2023/01/06 16:08:51;;;;;;;4.97;2.60;;;;;;;21.77;50.12;100922.78;20829456;28;20047;-77
2023/01/06 16:18:54;;;;;;;3.80;2.30;;;;;;;21.76;49.47;100937.75;20824081;28;20547;-77
2023/01/06 16:28:59;;;;;;;7.47;3.65;;;;;;;21.65;49.48;100945.56;20803131;28;20662;-74
2023/01/06 16:38:59;;;;;;;6.80;2.92;;;;;;;21.66;49.45;100947.28;20802789;28;20036;-73
2023/01/06 16:49:07;;;;;;;5.50;3.20;;;;;;;21.65;50.41;100953.47;20830577;28;20041;-76
2023/01/06 16:59:18;;;;;;;5.28;3.05;;;;;;;21.64;51.02;100947.38;20829230;28;20543;-76
2023/01/06 17:09:21;;;;;;;4.50;2.78;;;;;;;21.64;50.61;100938.63;20838844;28;20048;-76
2023/01/06 17:19:27;;;;;;;;;;;;;;;21.61;51.31;100937.03;20802545;28;20041;-75
2023/01/06 17:29:32;;;;;;;7.32;4.20;;;;;;;21.63;52.07;100942.19;20832312;28;19970;-79
2023/01/06 17:39:41;;;;;;;8.70;5.43;;;;;;;21.61;51.62;100933.56;20828216;28;20041;-77
2023/01/06 17:49:47;;;;;;;12.82;6.43;;;;;;;21.61;51.64;100947.59;20846652;28;20045;-79
2023/01/06 17:59:52;;;;;;;10.45;6.28;;;;;;;21.61;51.72;100949.38;20824858;28;20487;-76
2023/01/06 18:09:52;;;;;;;10.60;6.65;;;;;;;21.63;51.98;100956.22;20830500;28;20049;-77
2023/01/06 18:19:54;;;;;;;14.10;7.03;;;;;;;21.64;52.24;100962.34;20799397;28;20107;-76
2023/01/06 18:30:15;;;;;;;16.77;7.38;;;;;;;21.64;52.97;100964.97;20826701;28;20309;-75
2023/01/06 18:40:25;;;;;;;14.32;8.18;;;;;;;21.65;53.83;100959.59;20824810;28;20076;-77
2023/01/06 18:50:31;;;;;;;13.52;8.00;;;;;;;21.64;53.77;100971.09;20831364;28;20431;-81
2023/01/06 19:00:37;;;;;;;13.88;8.18;;;;;;;21.62;53.17;100978.25;20832358;28;20179;-77
2023/01/06 19:10:37;;;;;;;10.32;7.07;;;;;;;21.61;53.20;100984.47;20817424;28;20049;-78
2023/01/06 19:20:38;;;;;;;12.75;8.25;;;;;;;21.59;52.81;100966.16;20831488;28;21708;-78
2023/01/06 19:30:59;;;;;;;14.73;7.82;;;;;;;21.56;52.71;100949.69;20812706;28;20041;-76
2023/01/06 19:41:01;;;;;;;16.20;8.40;;;;;;;21.56;52.00;100937.38;20794105;28;20172;-77
2023/01/06 19:51:19;;;;;;;12.10;8.03;;;;;;;21.54;53.12;100939.22;20814474;28;20060;-77
2023/01/06 20:01:21;;;;;;;19.63;8.80;;;;;;;21.55;53.18;100937.44;20828375;28;20286;-78
2023/01/06 20:11:23;;;;;;;13.83;8.20;;;;;;;21.53;52.93;100931.44;20808499;28;20414;-75
2023/01/06 20:21:23;;;;;;;16.38;9.10;;;;;;;21.02;46.54;100930.53;20836174;28;20040;-77
2023/01/06 20:31:25;;;;;;;16.92;8.25;;;;;;;21.15;47.80;100954.22;20865580;28;20072;-80
2023/01/06 20:41:26;;;;;;;23.77;8.77;;;;;;;21.17;48.65;100956.75;20826377;28;20290;-79
2023/01/06 20:51:26;;;;;;;13.50;7.97;;;;;;;21.19;48.91;100963.59;20858149;28;20042;-77
2023/01/06 21:01:27;;;;;;;14.80;7.55;;;;;;;21.17;49.86;100957.59;20849338;28;20582;-77
2023/01/06 21:11:29;;;;;;;13.80;7.28;;;;;;;21.19;49.93;100939.91;20833042;28;20618;-76
2023/01/06 21:21:29;;;;;;;11.77;7.00;;;;;;;21.20;50.49;100940.72;20858659;28;20033;-76
2023/01/06 21:31:30;;;;;;;12.73;6.68;;;;;;;21.21;50.91;100932.72;20869205;28;20459;-74
2023/01/06 21:51:52;;;;;;;10.32;6.35;;;;;;;21.19;51.33;100945.16;20866385;28;20503;-76
2023/01/06 22:01:53;;;;;;;12.48;6.82;;;;;;;21.19;51.63;100944.31;20868677;28;20089;-77
2023/01/06 22:11:55;;;;;;;10.45;5.60;;;;;;;21.18;51.76;100921.56;20857989;28;20106;-77
2023/01/06 22:21:57;;;;;;;8.68;6.05;;;;;;;21.16;52.01;100923.47;20872984;28;20037;-75
2023/01/06 22:32:03;;;;;;;8.07;5.72;;;;;;;21.16;52.04;100921.66;20869416;28;20056;-78
2023/01/06 22:42:04;;;;;;;9.20;5.65;;;;;;;21.16;52.40;100936.63;20869344;28;20095;-76
2023/01/06 22:52:04;;;;;;;8.23;5.60;;;;;;;21.16;52.51;100923.47;20853367;28;20696;-76
2023/01/06 23:02:05;;;;;;;11.90;5.75;;;;;;;21.13;52.67;100921.91;20825437;28;20045;-76
2023/01/06 23:12:05;;;;;;;9.15;5.20;;;;;;;21.13;52.72;100918.41;20873333;28;22064;-76
2023/01/06 23:22:06;;;;;;;8.98;5.57;;;;;;;21.12;52.80;100914.94;20856840;28;20120;-76
2023/01/06 23:32:07;;;;;;;8.68;5.43;;;;;;;21.11;53.06;100915.88;20862471;28;20565;-76
2023/01/06 23:42:08;;;;;;;8.98;5.20;;;;;;;21.10;53.00;100922.09;20859900;28;20075;-76
2023/01/06 23:52:08;;;;;;;8.43;4.97;;;;;;;21.09;53.09;100920.41;20876520;28;20053;-77
